Mount Sunapee, New Hampshire
Current Conditions -  °F | °C
As of 11:53 AM on Thursday 23 Oct 2014 (Local Time) from KLEB Reporting Station
Light Rain Light Rain  
Wind Chill: 45°   Ceiling: 1200
Heat Index: 48°   Visibility: 2.5mi
Dew Point: 44°   Wind: 6mph
Humidity: 86%   Direction: 320°NW
Pressure: 29.83"   Gusts: NA
Location:  43.3732°N, 72.0415°W
Report Text: KLEB 231553Z 32005KT 2 1/2SM -RA BR SCT002 SCT006 OVC012 09/07 A2983 RMK AO2 SLP102 P0017 T00890067
Loading
Personal Weather Stations






























Interactive Weather Map
Tropical Storm Tracking
New forecast layout! Learn more

10-Day Weather Forecast

Advertisements
Track Severe Weather on mobile